Time;durP1;ratioP1;P1;durP2;ratioP2;P2;SDS_P1;SDS_P2;PMS_P1;PMS_P2;Temp;Humidity;BMP_temperature;BMP_pressure;BME280_temperature;BME280_humidity;BME280_pressure;Samples;Min_cycle;Max_cycle;Signal;HPM_P1;HPM_P2
2021/06/11 00:02:14;;;;;;;11.55;9.07;;;19.80;1.00;;;;;;5032279;28;20039;-85
2021/06/11 00:04:40;;;;;;;13.52;9.32;;;19.70;1.00;;;;;;5033696;28;20470;-85
2021/06/11 00:07:06;;;;;;;12.10;9.25;;;19.70;1.00;;;;;;5033054;28;20025;-85
2021/06/11 00:09:31;;;;;;;12.40;10.10;;;19.80;1.00;;;;;;5033148;28;20105;-85
2021/06/11 00:11:57;;;;;;;10.68;9.63;;;19.70;1.00;;;;;;5032946;28;20439;-84
2021/06/11 00:14:22;;;;;;;9.73;8.80;;;19.60;1.00;;;;;;5032882;28;20030;-85
2021/06/11 00:16:48;;;;;;;10.18;9.18;;;19.70;1.00;;;;;;5033752;28;20478;-84
2021/06/11 00:19:14;;;;;;;10.93;9.18;;;19.60;1.00;;;;;;5032791;28;20051;-85
2021/06/11 00:21:40;;;;;;;10.93;9.00;;;19.60;1.00;;;;;;5032484;28;20132;-84
2021/06/11 00:24:06;;;;;;;12.38;10.23;;;19.70;1.00;;;;;;5032568;28;20025;-84
2021/06/11 00:26:31;;;;;;;10.57;9.48;;;19.60;1.00;;;;;;5032765;28;20466;-85
2021/06/11 00:28:57;;;;;;;10.88;9.60;;;19.40;1.00;;;;;;5032694;28;20026;-85
2021/06/11 00:31:23;;;;;;;11.20;9.75;;;19.30;1.00;;;;;;5032948;28;20501;-85
2021/06/11 00:33:48;;;;;;;10.80;9.70;;;19.30;1.00;;;;;;5032498;28;20029;-85
2021/06/11 00:36:14;;;;;;;12.40;10.05;;;19.20;1.00;;;;;;5033186;28;20029;-85
2021/06/11 00:38:39;;;;;;;11.13;9.52;;;19.10;1.00;;;;;;5032028;28;20021;-84
2021/06/11 00:41:05;;;;;;;10.00;8.95;;;19.00;1.00;;;;;;5032486;28;20490;-85
2021/06/11 00:43:31;;;;;;;11.35;9.63;;;19.10;1.00;;;;;;5032932;28;20036;-85
2021/06/11 00:45:56;;;;;;;10.02;9.13;;;19.30;1.00;;;;;;5032181;28;20397;-84
2021/06/11 00:48:22;;;;;;;10.60;9.60;;;19.40;1.00;;;;;;5032108;28;20071;-85
2021/06/11 00:50:48;;;;;;;10.20;8.95;;;19.30;1.00;;;;;;5032136;28;20021;-85
2021/06/11 00:53:13;;;;;;;10.05;9.05;;;19.10;1.00;;;;;;5032510;28;20025;-85
2021/06/11 00:55:44;;;;;;;10.55;9.65;;;19.10;1.00;;;;;;5032531;28;20032;-85
2021/06/11 00:58:11;;;;;;;10.60;9.50;;;19.10;1.00;;;;;;5032393;28;20030;-84
2021/06/11 01:00:37;;;;;;;10.43;9.35;;;19.10;1.00;;;;;;5031955;28;20052;-85
2021/06/11 01:03:03;;;;;;;12.77;9.48;;;19.10;1.00;;;;;;5032213;28;20466;-85
2021/06/11 01:05:28;;;;;;;12.20;9.40;;;18.90;1.00;;;;;;5032216;28;20033;-85
2021/06/11 01:07:55;;;;;;;10.10;9.23;;;18.90;1.00;;;;;;5032137;28;20026;-85
2021/06/11 01:10:22;;;;;;;11.18;9.52;;;18.90;1.00;;;;;;5032163;28;20029;-85
2021/06/11 01:12:49;;;;;;;9.98;9.02;;;18.90;1.00;;;;;;5031367;28;20239;-84
2021/06/11 01:15:17;;;;;;;14.10;9.90;;;18.90;1.00;;;;;;5032095;28;20024;-84
2021/06/11 01:17:43;;;;;;;10.40;9.30;;;19.00;1.00;;;;;;5032154;28;20060;-84
2021/06/11 01:20:11;;;;;;;12.23;9.18;;;18.90;1.00;;;;;;5031305;28;20049;-85
2021/06/11 01:23:14;;;;;;;9.88;8.98;;;19.00;1.00;;;;;;5032011;28;20045;-85
2021/06/11 01:25:45;;;;;;;10.48;9.57;;;18.80;1.00;;;;;;5031470;28;20025;-84
2021/06/11 01:28:13;;;;;;;11.02;9.93;;;18.80;1.00;;;;;;5031381;28;20120;-85
2021/06/11 01:30:40;;;;;;;10.35;9.25;;;18.70;1.00;;;;;;5031476;28;20109;-85
2021/06/11 01:33:07;;;;;;;10.98;9.98;;;18.60;1.00;;;;;;5009984;28;20184;-84
2021/06/11 01:35:58;;;;;;;10.27;8.93;;;18.70;1.00;;;;;;5030945;28;20025;-85
2021/06/11 01:38:31;;;;;;;11.80;9.30;;;18.70;1.00;;;;;;5016732;28;22604;-84
2021/06/11 01:40:59;;;;;;;10.52;9.43;;;18.60;1.00;;;;;;5031388;28;20119;-84
2021/06/11 01:43:26;;;;;;;12.30;9.35;;;18.60;1.00;;;;;;5032091;28;20017;-84
2021/06/11 01:45:51;;;;;;;10.00;8.55;;;18.60;1.00;;;;;;5031214;28;20019;-85
2021/06/11 01:48:18;;;;;;;12.82;9.70;;;18.60;1.00;;;;;;5031224;28;20036;-84
2021/06/11 01:50:45;;;;;;;11.15;10.05;;;18.60;1.00;;;;;;5030433;28;20447;-84
2021/06/11 01:53:12;;;;;;;11.65;9.95;;;18.60;1.00;;;;;;5031689;28;20510;-85
2021/06/11 01:55:39;;;;;;;12.45;9.30;;;18.50;1.00;;;;;;5031632;28;20022;-85
2021/06/11 01:58:07;;;;;;;11.60;9.05;;;18.50;1.00;;;;;;5031100;28;20497;-84
2021/06/11 02:00:33;;;;;;;11.32;9.82;;;18.60;1.00;;;;;;5031747;28;20021;-84
2021/06/11 02:03:00;;;;;;;12.70;10.15;;;18.50;1.00;;;;;;5030866;28;20034;-84
2021/06/11 02:05:26;;;;;;;15.40;10.77;;;18.40;1.00;;;;;;5030528;28;20048;-84
2021/06/11 02:07:52;;;;;;;13.05;9.57;;;18.40;1.00;;;;;;5013963;28;20510;-85
2021/06/11 02:10:21;;;;;;;10.98;9.43;;;18.40;1.00;;;;;;5030798;28;20017;-85
2021/06/11 02:12:48;;;;;;;10.73;9.65;;;18.40;1.00;;;;;;5030659;28;20022;-85
2021/06/11 02:15:15;;;;;;;10.95;9.95;;;18.40;1.00;;;;;;5031201;28;20021;-85
2021/06/11 02:17:44;;;;;;;10.40;9.40;;;18.30;1.00;;;;;;5031006;28;20033;-85
2021/06/11 02:20:12;;;;;;;11.07;9.05;;;18.30;1.00;;;;;;5030505;28;20022;-84
2021/06/11 02:22:39;;;;;;;12.55;9.70;;;18.40;1.00;;;;;;5031271;28;20154;-85
2021/06/11 02:25:06;;;;;;;10.90;9.80;;;18.40;1.00;;;;;;5031682;28;20041;-84
2021/06/11 02:27:33;;;;;;;11.20;9.98;;;18.30;1.00;;;;;;5013117;28;20067;-85
2021/06/11 02:29:59;;;;;;;10.95;9.20;;;18.20;1.00;;;;;;5034924;28;20468;-85
2021/06/11 02:32:26;;;;;;;10.70;9.60;;;18.20;1.00;;;;;;5034728;28;20049;-84
2021/06/11 02:34:52;;;;;;;10.65;9.65;;;18.20;1.00;;;;;;5035053;28;20025;-85
2021/06/11 02:37:18;;;;;;;13.75;9.73;;;18.20;1.00;;;;;;5034491;28;20045;-85
2021/06/11 02:39:44;;;;;;;10.48;9.48;;;18.20;1.00;;;;;;5034919;28;20085;-84
2021/06/11 02:42:11;;;;;;;10.80;9.25;;;18.10;1.00;;;;;;5034620;28;20033;-84
2021/06/11 02:44:42;;;;;;;11.25;9.68;;;18.10;1.00;;;;;;5034511;28;20036;-85
2021/06/11 02:47:24;;;;;;;11.18;8.73;;;18.10;1.00;;;;;;5034638;28;20083;-84
2021/06/11 02:50:03;;;;;;;12.38;9.43;;;18.10;1.00;;;;;;5031476;28;20029;-84
2021/06/11 02:52:32;;;;;;;11.60;9.18;;;18.10;1.00;;;;;;5034851;28;20395;-84
2021/06/11 02:55:01;;;;;;;11.98;9.70;;;18.10;1.00;;;;;;5034142;28;20505;-85
2021/06/11 02:57:38;;;;;;;9.93;9.00;;;17.90;1.00;;;;;;5034520;28;20025;-84
2021/06/11 03:00:07;;;;;;;10.05;9.07;;;17.90;1.00;;;;;;5034149;28;20123;-84
2021/06/11 03:02:40;;;;;;;9.93;8.80;;;17.90;1.00;;;;;;5033966;28;20033;-84
2021/06/11 03:05:09;;;;;;;12.05;9.77;;;17.80;1.00;;;;;;5034607;28;20549;-84
2021/06/11 03:07:37;;;;;;;10.98;9.40;;;17.80;1.00;;;;;;5034769;28;20026;-85
2021/06/11 03:10:07;;;;;;;14.57;9.82;;;17.80;1.00;;;;;;5033960;28;20466;-85
2021/06/11 03:12:35;;;;;;;10.80;9.35;;;17.90;1.00;;;;;;5034054;28;20657;-84
2021/06/11 03:15:01;;;;;;;12.65;10.23;;;18.30;1.00;;;;;;5033911;28;20033;-84
2021/06/11 03:17:32;;;;;;;11.43;9.38;;;17.80;1.00;;;;;;5033932;28;20033;-84
2021/06/11 03:20:02;;;;;;;14.95;10.73;;;17.90;1.00;;;;;;5016025;28;20049;-85
2021/06/11 03:22:35;;;;;;;10.40;9.40;;;17.80;1.00;;;;;;5034630;28;20056;-85
2021/06/11 03:25:10;;;;;;;13.45;10.05;;;17.90;1.00;;;;;;5033948;28;20022;-85
2021/06/11 03:27:39;;;;;;;15.95;11.02;;;17.90;1.00;;;;;;5033716;28;20030;-84
2021/06/11 03:30:08;;;;;;;11.68;9.70;;;17.90;1.00;;;;;;5033733;28;20105;-84
2021/06/11 03:32:42;;;;;;;10.98;9.88;;;17.80;1.00;;;;;;5033296;28;20029;-84
2021/06/11 03:35:16;;;;;;;11.27;10.20;;;17.70;1.00;;;;;;5016122;28;20025;-84
2021/06/11 03:37:46;;;;;;;12.80;10.02;;;17.70;1.00;;;;;;5033905;28;20431;-85
2021/06/11 03:40:19;;;;;;;13.07;10.18;;;17.70;1.00;;;;;;5033527;28;20036;-84
2021/06/11 03:42:45;;;;;;;12.45;11.25;;;17.70;1.00;;;;;;5033815;28;20029;-85
2021/06/11 03:45:11;;;;;;;11.95;10.73;;;17.60;1.00;;;;;;5033017;28;20036;-84
2021/06/11 03:47:38;;;;;;;12.95;10.60;;;17.60;1.00;;;;;;5033399;28;20026;-84
2021/06/11 03:50:05;;;;;;;10.63;9.70;;;17.60;1.00;;;;;;5033713;28;20025;-84
2021/06/11 03:52:33;;;;;;;12.18;10.80;;;17.70;1.00;;;;;;5031778;28;20552;-85
2021/06/11 03:55:09;;;;;;;11.57;10.45;;;17.70;1.00;;;;;;5015850;28;20036;-84
2021/06/11 03:57:37;;;;;;;11.38;10.15;;;17.60;1.00;;;;;;5033166;28;20029;-84
2021/06/11 04:00:04;;;;;;;12.00;10.57;;;17.70;1.00;;;;;;5033133;28;20026;-84
2021/06/11 04:02:29;;;;;;;11.52;10.43;;;17.70;1.00;;;;;;5033213;28;20052;-84
2021/06/11 04:04:57;;;;;;;12.00;10.80;;;17.70;1.00;;;;;;5033823;28;20053;-84
2021/06/11 04:07:28;;;;;;;13.27;11.73;;;17.70;1.00;;;;;;5033034;28;20109;-84
2021/06/11 04:10:06;;;;;;;12.68;10.10;;;17.70;1.00;;;;;;5032510;28;20112;-85
2021/06/11 04:12:43;;;;;;;12.10;10.80;;;17.70;1.00;;;;;;5033218;28;20091;-84
2021/06/11 04:15:11;;;;;;;11.60;10.40;;;17.60;1.00;;;;;;5032581;28;20037;-84
2021/06/11 04:17:41;;;;;;;18.40;10.90;;;17.60;1.00;;;;;;5015076;28;20590;-84
2021/06/11 04:20:12;;;;;;;14.48;11.60;;;17.70;1.00;;;;;;5033146;28;20026;-85
2021/06/11 04:22:41;;;;;;;11.80;10.63;;;17.60;1.00;;;;;;5016117;28;20049;-85
2021/06/11 04:25:11;;;;;;;11.75;10.65;;;18.20;1.00;;;;;;5032770;28;20056;-85
2021/06/11 04:27:39;;;;;;;13.40;12.10;;;17.70;1.00;;;;;;5032738;28;20475;-85
2021/06/11 04:30:05;;;;;;;12.90;11.32;;;17.80;1.00;;;;;;5032080;28;20029;-85
2021/06/11 04:32:31;;;;;;;12.23;11.02;;;17.90;1.00;;;;;;5032631;28;20042;-85
2021/06/11 04:34:57;;;;;;;12.77;11.25;;;17.80;1.00;;;;;;5033233;28;20028;-85
2021/06/11 04:37:22;;;;;;;12.82;11.60;;;18.00;1.00;;;;;;5014237;28;20033;-84
2021/06/11 04:39:48;;;;;;;15.55;11.55;;;17.80;1.00;;;;;;5032351;28;20029;-84
2021/06/11 04:42:14;;;;;;;12.85;11.45;;;17.80;1.00;;;;;;5032308;28;20030;-84
2021/06/11 04:44:40;;;;;;;13.23;11.88;;;17.80;1.00;;;;;;5032143;28;20034;-84
2021/06/11 04:47:06;;;;;;;13.32;11.57;;;17.90;1.00;;;;;;5032459;28;20033;-84
2021/06/11 04:49:32;;;;;;;12.82;11.55;;;18.00;1.00;;;;;;5032633;28;20040;-85
2021/06/11 04:51:58;;;;;;;13.88;12.40;;;18.00;1.00;;;;;;5031883;28;20406;-84
2021/06/11 04:54:24;;;;;;;15.23;12.63;;;18.10;1.00;;;;;;5032501;28;20099;-85
2021/06/11 04:56:49;;;;;;;14.52;13.05;;;18.10;1.00;;;;;;5032056;28;20057;-85
2021/06/11 04:59:15;;;;;;;13.60;12.32;;;18.10;1.00;;;;;;5031986;28;20056;-85
2021/06/11 05:01:40;;;;;;;13.60;12.40;;;18.10;1.00;;;;;;5032638;28;20108;-84
2021/06/11 05:04:06;;;;;;;13.85;12.43;;;18.20;1.00;;;;;;5032262;28;20083;-84
2021/06/11 05:06:32;;;;;;;14.57;12.80;;;18.20;1.00;;;;;;5032005;28;20454;-84
2021/06/11 05:08:57;;;;;;;15.82;12.63;;;18.20;1.00;;;;;;5014475;28;20017;-84
2021/06/11 05:11:23;;;;;;;15.68;13.15;;;18.20;1.00;;;;;;5031662;28;20033;-85
2021/06/11 05:13:49;;;;;;;15.68;12.90;;;18.20;1.00;;;;;;5032084;28;20033;-84
2021/06/11 05:16:14;;;;;;;14.27;12.60;;;18.30;1.00;;;;;;5031988;28;20053;-84
2021/06/11 05:18:40;;;;;;;16.15;13.20;;;18.30;1.00;;;;;;5031817;28;20087;-85
2021/06/11 05:21:06;;;;;;;14.30;12.80;;;18.40;1.00;;;;;;5031437;28;20144;-84
2021/06/11 05:23:32;;;;;;;15.23;13.65;;;18.50;1.00;;;;;;5031652;28;20140;-84
2021/06/11 05:25:58;;;;;;;15.00;13.45;;;18.60;1.00;;;;;;5031801;28;20386;-84
2021/06/11 05:28:24;;;;;;;14.80;13.18;;;18.70;1.00;;;;;;5031543;28;20037;-84
2021/06/11 05:30:51;;;;;;;15.25;13.63;;;18.70;1.00;;;;;;5031800;28;20026;-85
2021/06/11 05:33:16;;;;;;;15.98;14.23;;;18.90;1.00;;;;;;5031735;28;20422;-85
2021/06/11 05:35:42;;;;;;;16.77;13.63;;;18.90;1.00;;;;;;5031729;28;20028;-84
2021/06/11 05:38:08;;;;;;;16.65;14.30;;;19.00;1.00;;;;;;5031474;28;20124;-84
2021/06/11 05:40:35;;;;;;;16.65;14.95;;;18.80;1.00;;;;;;5031886;28;20017;-84
2021/06/11 05:43:01;;;;;;;16.08;14.38;;;19.00;1.00;;;;;;5030736;28;20086;-84
2021/06/11 05:45:28;;;;;;;16.55;14.88;;;19.00;1.00;;;;;;5031172;28;20508;-85
2021/06/11 05:47:53;;;;;;;16.98;15.23;;;19.00;1.00;;;;;;5031131;28;20031;-85
2021/06/11 05:50:19;;;;;;;17.70;16.00;;;19.00;1.00;;;;;;5031229;28;20021;-84
2021/06/11 05:52:45;;;;;;;17.70;15.93;;;19.10;1.00;;;;;;5031615;28;20044;-87
2021/06/11 05:55:13;;;;;;;18.05;16.30;;;19.20;1.00;;;;;;5031186;28;20033;-87
2021/06/11 05:57:39;;;;;;;19.83;16.75;;;19.30;1.00;;;;;;5031110;28;20083;-87
2021/06/11 06:00:05;;;;;;;18.38;16.40;;;19.30;1.00;;;;;;5013595;28;20410;-87
2021/06/11 06:02:31;;;;;;;24.17;18.98;;;19.30;1.00;;;;;;5031934;28;20021;-88
2021/06/11 06:04:56;;;;;;;23.17;20.60;;;19.40;1.00;;;;;;5031709;28;20084;-89
2021/06/11 06:07:23;;;;;;;23.25;19.33;;;19.50;1.00;;;;;;5014097;28;20036;-88
2021/06/11 06:09:48;;;;;;;26.58;20.33;;;19.50;1.00;;;;;;5031122;28;20032;-89
2021/06/11 06:12:14;;;;;;;20.85;18.60;;;19.60;1.00;;;;;;5031382;28;20046;-91
2021/06/11 06:14:40;;;;;;;21.35;18.70;;;19.60;1.00;;;;;;5031263;28;20406;-87
2021/06/11 06:17:05;;;;;;;22.05;19.08;;;19.70;1.00;;;;;;5030804;28;20029;-87
2021/06/11 06:19:31;;;;;;;20.90;18.70;;;19.80;1.00;;;;;;5031340;28;20025;-87
2021/06/11 06:21:57;;;;;;;21.27;19.13;;;19.80;1.00;;;;;;5030470;28;20049;-86
2021/06/11 06:24:23;;;;;;;20.75;18.75;;;19.90;1.00;;;;;;5030703;28;20030;-87
2021/06/11 06:26:49;;;;;;;20.50;18.38;;;20.00;1.00;;;;;;5029571;28;20405;-86
2021/06/11 06:29:14;;;;;;;21.80;19.55;;;20.10;1.00;;;;;;5030626;28;20099;-86
2021/06/11 06:31:40;;;;;;;20.67;18.65;;;20.20;1.00;;;;;;5013356;28;20530;-86
2021/06/11 06:34:05;;;;;;;21.17;19.05;;;20.20;1.00;;;;;;5030866;28;20398;-86
2021/06/11 06:36:31;;;;;;;22.42;20.13;;;20.30;1.00;;;;;;5030629;28;20048;-85
2021/06/11 06:39:03;;;;;;;19.60;17.75;;;20.20;1.00;;;;;;5030139;28;20026;-85
2021/06/11 06:41:29;;;;;;;21.38;19.17;;;20.30;1.00;;;;;;5030325;28;20079;-85
2021/06/11 06:43:55;;;;;;;20.25;18.35;;;20.40;1.00;;;;;;5030764;28;20493;-85
2021/06/11 06:46:22;;;;;;;21.35;19.17;;;20.50;1.00;;;;;;5031190;28;20022;-85
2021/06/11 06:48:52;;;;;;;21.60;19.52;;;20.50;1.00;;;;;;5030483;28;20108;-85
2021/06/11 06:51:19;;;;;;;21.45;19.42;;;20.50;1.00;;;;;;5030990;28;20049;-85
2021/06/11 06:53:45;;;;;;;20.45;18.30;;;20.50;1.00;;;;;;5029695;28;20038;-85
2021/06/11 06:56:11;;;;;;;20.92;18.90;;;20.60;1.00;;;;;;5031151;28;20044;-84
2021/06/11 06:58:36;;;;;;;20.58;18.73;;;20.60;1.00;;;;;;5030959;28;20029;-85
2021/06/11 07:01:03;;;;;;;21.88;19.77;;;20.70;1.00;;;;;;5030841;28;20068;-86
2021/06/11 07:03:29;;;;;;;21.52;19.58;;;20.60;1.00;;;;;;5030320;28;20029;-85
2021/06/11 07:05:54;;;;;;;22.45;20.33;;;20.80;1.00;;;;;;5030446;28;20021;-86
2021/06/11 07:08:20;;;;;;;23.10;20.70;;;20.80;1.00;;;;;;5029988;28;20566;-85
2021/06/11 07:10:46;;;;;;;21.70;19.58;;;20.80;1.00;;;;;;5031724;28;20032;-85
2021/06/11 07:13:12;;;;;;;23.70;21.30;;;20.70;1.00;;;;;;5034220;28;20064;-86
2021/06/11 07:15:38;;;;;;;23.88;21.33;;;20.70;1.00;;;;;;5033551;28;20033;-86
2021/06/11 07:18:04;;;;;;;23.52;21.27;;;20.90;1.00;;;;;;5034562;28;20033;-85
2021/06/11 07:20:30;;;;;;;22.63;20.45;;;21.00;1.00;;;;;;5034036;28;20030;-85
2021/06/11 07:22:56;;;;;;;23.40;20.98;;;21.10;1.00;;;;;;5033342;28;20541;-85
2021/06/11 07:25:22;;;;;;;23.02;20.73;;;21.10;1.00;;;;;;5034514;28;20033;-85
2021/06/11 07:27:47;;;;;;;24.45;21.95;;;21.30;1.00;;;;;;5033762;28;20508;-85
2021/06/11 07:30:14;;;;;;;22.10;19.92;;;21.30;1.00;;;;;;5033627;28;20037;-86
2021/06/11 07:32:43;;;;;;;24.13;21.48;;;21.40;1.00;;;;;;5033628;28;20021;-85
2021/06/11 07:35:10;;;;;;;22.30;20.15;;;21.60;1.00;;;;;;5033737;28;20033;-85
2021/06/11 07:37:36;;;;;;;23.42;21.17;;;21.60;1.00;;;;;;5034018;28;20033;-85
2021/06/11 07:40:04;;;;;;;23.77;21.58;;;21.60;1.00;;;;;;5033907;28;20029;-85
2021/06/11 07:42:30;;;;;;;25.02;22.52;;;21.70;1.00;;;;;;5033365;28;20036;-85
2021/06/11 07:44:56;;;;;;;24.73;22.25;;;21.50;1.00;;;;;;5033449;28;20129;-86
2021/06/11 07:47:21;;;;;;;25.00;22.50;;;21.40;1.00;;;;;;5033907;28;20504;-86
2021/06/11 07:49:47;;;;;;;24.08;21.77;;;21.50;1.00;;;;;;5030049;28;20037;-85
2021/06/11 07:52:12;;;;;;;25.58;22.92;;;21.40;1.00;;;;;;5032965;28;20041;-85
2021/06/11 07:54:38;;;;;;;26.00;23.58;;;21.50;1.00;;;;;;5033098;28;20056;-85
2021/06/11 07:57:04;;;;;;;26.55;24.02;;;21.40;1.00;;;;;;5033559;28;20120;-85
2021/06/11 07:59:30;;;;;;;25.05;22.65;;;21.60;1.00;;;;;;5033373;28;20474;-86
2021/06/11 08:01:55;;;;;;;24.50;22.00;;;21.80;1.00;;;;;;5033554;28;20072;-85
2021/06/11 08:04:21;;;;;;;24.52;22.23;;;22.00;1.00;;;;;;5033339;28;20082;-86
2021/06/11 08:06:47;;;;;;;25.00;22.52;;;22.00;1.00;;;;;;5032725;28;20074;-85
2021/06/11 08:09:14;;;;;;;24.00;21.80;;;22.00;1.00;;;;;;5010798;28;20149;-85
2021/06/11 08:11:39;;;;;;;27.48;24.80;;;22.20;1.00;;;;;;5033129;28;20036;-86
2021/06/11 08:14:05;;;;;;;27.13;24.42;;;22.20;1.00;;;;;;5033059;28;20030;-85
2021/06/11 08:16:31;;;;;;;26.33;23.83;;;22.00;1.00;;;;;;5033557;28;20041;-86
2021/06/11 08:18:56;;;;;;;27.02;24.33;;;22.10;1.00;;;;;;5032856;28;20030;-86
2021/06/11 08:21:22;;;;;;;25.60;23.00;;;22.20;1.00;;;;;;5032249;28;20572;-86
2021/06/11 08:23:48;;;;;;;26.05;23.58;;;22.20;1.00;;;;;;5031715;28;20034;-86
2021/06/11 08:26:14;;;;;;;24.83;22.50;;;22.20;1.00;;;;;;5033235;28;20521;-85
2021/06/11 08:28:40;;;;;;;23.73;21.42;;;22.30;1.00;;;;;;5033579;28;20032;-86
2021/06/11 08:31:06;;;;;;;23.90;21.60;;;22.60;1.00;;;;;;5032654;28;20381;-85
2021/06/11 08:33:33;;;;;;;22.73;20.52;;;22.70;1.00;;;;;;5032563;28;20525;-86
2021/06/11 08:35:58;;;;;;;23.52;21.33;;;22.70;1.00;;;;;;5032583;28;20041;-86
2021/06/11 08:38:24;;;;;;;22.80;20.52;;;22.60;1.00;;;;;;5032626;28;20033;-85
2021/06/11 08:40:50;;;;;;;24.95;22.55;;;22.80;1.00;;;;;;5033057;28;20423;-85
2021/06/11 08:43:17;;;;;;;25.02;22.65;;;23.00;1.00;;;;;;5032562;28;20127;-86
2021/06/11 08:45:44;;;;;;;24.88;22.48;;;23.10;1.00;;;;;;5032657;28;20021;-84
2021/06/11 08:48:10;;;;;;;23.88;21.52;;;23.00;1.00;;;;;;5032129;28;20405;-85
2021/06/11 08:50:37;;;;;;;22.95;20.77;;;23.10;99.90;;;;;;5031782;28;20021;-85
2021/06/11 08:53:05;;;;;;;22.85;20.73;;;23.30;99.90;;;;;;5032915;28;20037;-85
2021/06/11 08:55:31;;;;;;;19.92;17.90;;;23.40;99.90;;;;;;5032727;28;20022;-85
2021/06/11 08:57:57;;;;;;;19.17;17.42;;;23.30;99.90;;;;;;5032066;28;20029;-86
2021/06/11 09:00:24;;;;;;;20.27;18.33;;;23.50;99.90;;;;;;5032468;28;20078;-85
2021/06/11 09:03:10;;;;;;;21.92;19.63;;;23.60;99.90;;;;;;5032413;28;20018;-85
2021/06/11 09:05:38;;;;;;;21.75;19.75;;;23.60;99.90;;;;;;5018331;28;20048;-85
2021/06/11 09:08:11;;;;;;;21.90;19.55;;;23.70;99.90;;;;;;5032223;28;20025;-85
2021/06/11 09:10:36;;;;;;;22.23;20.08;;;23.60;99.90;;;;;;5030875;28;20029;-85
2021/06/11 09:13:02;;;;;;;19.52;17.73;;;23.40;99.90;;;;;;5031844;28;20122;-85
2021/06/11 09:15:28;;;;;;;21.50;19.42;;;23.50;99.90;;;;;;5032040;28;20444;-85
2021/06/11 09:17:53;;;;;;;21.73;19.63;;;23.60;99.90;;;;;;5032122;28;20033;-85
2021/06/11 09:20:33;;;;;;;27.15;22.10;;;23.60;99.90;;;;;;5014996;28;20644;-86
2021/06/11 09:23:00;;;;;;;20.25;18.33;;;23.80;99.90;;;;;;5029142;28;20072;-86
2021/06/11 09:25:36;;;;;;;20.92;18.88;;;24.00;99.90;;;;;;5032314;28;20112;-85
2021/06/11 09:28:13;;;;;;;20.20;18.30;;;24.10;99.90;;;;;;5031438;28;20049;-86
2021/06/11 09:30:39;;;;;;;20.75;18.70;;;24.30;99.90;;;;;;5031305;28;20021;-85
2021/06/11 09:33:12;;;;;;;21.40;19.30;;;24.20;99.90;;;;;;5031210;28;20036;-85
2021/06/11 09:35:40;;;;;;;18.65;16.98;;;24.10;99.90;;;;;;5031571;28;20390;-86
2021/06/11 09:38:18;;;;;;;20.55;18.65;;;24.20;99.90;;;;;;5031551;28;20026;-86
2021/06/11 09:40:57;;;;;;;21.83;19.38;;;24.60;99.90;;;;;;5031383;28;20025;-86
2021/06/11 09:43:23;;;;;;;24.13;21.63;;;24.50;99.90;;;;;;5032012;28;20104;-85
2021/06/11 09:46:18;;;;;;;19.70;17.90;;;24.50;99.90;;;;;;5031108;28;20028;-86
2021/06/11 09:48:46;;;;;;;20.70;18.70;;;24.70;99.90;;;;;;5017986;28;20120;-86
2021/06/11 09:51:23;;;;;;;19.67;17.80;;;24.70;99.90;;;;;;5031593;28;20032;-87
2021/06/11 09:53:52;;;;;;;21.42;19.25;;;24.80;99.90;;;;;;5031756;28;20060;-88
2021/06/11 09:56:22;;;;;;;20.58;18.55;;;24.90;99.90;;;;;;5014843;28;20032;-92
2021/06/11 09:58:48;;;;;;;19.83;18.02;;;25.00;99.90;;;;;;5027728;28;20040;-93
2021/06/11 10:01:15;;;;;;;18.85;17.15;;;25.10;99.90;;;;;;5033277;28;20561;-92
2021/06/11 10:03:44;;;;;;;17.40;15.70;;;25.10;99.90;;;;;;5031893;28;20048;-92
2021/06/11 10:06:12;;;;;;;16.75;15.05;;;25.20;99.90;;;;;;5010487;28;20113;-90
2021/06/11 10:08:39;;;;;;;16.45;14.85;;;25.40;99.90;;;;;;5032091;28;20124;-91
2021/06/11 10:11:08;;;;;;;14.77;12.75;;;25.50;99.90;;;;;;5032179;28;20087;-91
2021/06/11 10:13:35;;;;;;;13.85;12.55;;;25.30;99.90;;;;;;5030402;28;20038;-91
2021/06/11 10:16:05;;;;;;;13.10;11.82;;;25.50;99.90;;;;;;5031793;28;20048;-89
2021/06/11 10:18:31;;;;;;;13.85;12.45;;;25.70;99.90;;;;;;5032190;28;20025;-89
2021/06/11 10:20:58;;;;;;;13.25;12.05;;;25.50;99.90;;;;;;5031344;28;20659;-92
2021/06/11 10:23:26;;;;;;;14.93;13.60;;;25.50;99.90;;;;;;5032357;28;20029;-92
2021/06/11 10:25:55;;;;;;;14.45;13.00;;;25.30;99.90;;;;;;5014949;28;20018;-93
2021/06/11 10:28:24;;;;;;;13.43;12.02;;;25.40;99.90;;;;;;5031475;28;20037;-86
2021/06/11 10:30:58;;;;;;;11.45;10.38;;;25.40;99.90;;;;;;5031413;28;20118;-85
2021/06/11 10:33:45;;;;;;;11.20;10.18;;;25.60;99.90;;;;;;5030412;28;20025;-86
2021/06/11 10:36:43;;;;;;;15.57;12.77;;;25.90;99.90;;;;;;5030628;28;20079;-85
2021/06/11 10:39:15;;;;;;;9.65;8.80;;;25.80;99.90;;;;;;5031044;28;20034;-85
2021/06/11 10:42:08;;;;;;;13.75;12.45;;;26.00;99.90;;;;;;5030610;28;20508;-86
2021/06/11 10:44:45;;;;;;;13.90;12.52;;;25.80;99.90;;;;;;5017087;28;20018;-89
2021/06/11 10:47:17;;;;;;;12.88;11.75;;;25.70;99.90;;;;;;5033318;28;20552;-86
2021/06/11 10:49:58;;;;;;;13.55;11.25;;;25.90;99.90;;;;;;5035148;28;20036;-87
2021/06/11 10:52:49;;;;;;;14.55;13.15;;;26.10;99.90;;;;;;5034872;28;20064;-87
2021/06/11 10:55:15;;;;;;;14.43;13.10;;;26.00;99.90;;;;;;5034676;28;20477;-87
2021/06/11 10:58:06;;;;;;;17.25;15.57;;;26.10;99.90;;;;;;5034335;28;20028;-87
2021/06/11 11:00:38;;;;;;;15.30;13.75;;;26.20;99.90;;;;;;4972620;28;20039;-87
2021/06/11 11:03:05;;;;;;;14.35;12.35;;;26.30;99.90;;;;;;4973286;28;20042;-88
2021/06/11 11:05:35;;;;;;;14.13;12.82;;;26.60;99.90;;;;;;4973266;28;20035;-87
2021/06/11 11:08:05;;;;;;;13.68;12.38;;;26.60;99.90;;;;;;4973540;28;20472;-88
2021/06/11 11:10:35;;;;;;;11.73;10.73;;;26.70;99.90;;;;;;4973815;28;20019;-87
2021/06/11 11:13:03;;;;;;;15.30;13.98;;;26.80;99.90;;;;;;4972893;28;20567;-87
2021/06/11 11:15:46;;;;;;;13.23;11.93;;;26.80;99.90;;;;;;4972615;28;20475;-87
2021/06/11 11:18:32;;;;;;;17.05;15.38;;;27.00;99.90;;;;;;4973171;28;20043;-88
2021/06/11 11:20:58;;;;;;;16.85;15.27;;;26.90;99.90;;;;;;4971410;28;20035;-87
2021/06/11 11:23:25;;;;;;;15.43;13.85;;;26.90;99.90;;;;;;4973002;28;20050;-87
2021/06/11 11:25:51;;;;;;;16.17;14.68;;;27.30;99.90;;;;;;4973368;28;20030;-86
2021/06/11 11:28:18;;;;;;;16.42;14.93;;;27.00;99.90;;;;;;4973102;28;20121;-87
2021/06/11 11:30:46;;;;;;;15.35;13.95;;;27.00;99.90;;;;;;4972480;28;20031;-87
2021/06/11 11:33:12;;;;;;;15.38;13.85;;;27.10;99.90;;;;;;4972790;28;20411;-87
2021/06/11 11:35:41;;;;;;;15.73;13.70;;;27.00;99.90;;;;;;4972688;28;20030;-87
2021/06/11 11:38:09;;;;;;;13.65;12.35;;;27.40;99.90;;;;;;5015977;28;20042;-87
2021/06/11 11:40:35;;;;;;;10.95;9.95;;;27.80;99.90;;;;;;5016784;28;20394;-87
2021/06/11 11:43:01;;;;;;;12.90;11.75;;;27.70;99.90;;;;;;5033317;28;20080;-87
2021/06/11 11:45:29;;;;;;;11.23;10.13;;;27.70;99.90;;;;;;5033012;28;20490;-87
2021/06/11 11:48:00;;;;;;;8.85;8.13;;;27.60;99.90;;;;;;5033831;28;20029;-87
2021/06/11 11:50:28;;;;;;;8.40;7.70;;;27.90;99.90;;;;;;5033941;28;20057;-87
2021/06/11 11:52:55;;;;;;;8.07;7.28;;;28.30;99.90;;;;;;5033885;28;20033;-88
2021/06/11 11:55:20;;;;;;;9.82;8.65;;;28.70;99.90;;;;;;5034069;28;20021;-87
2021/06/11 11:57:46;;;;;;;9.77;8.98;;;28.60;99.90;;;;;;5032778;28;20025;-88
2021/06/11 12:00:15;;;;;;;8.88;8.13;;;28.80;99.90;;;;;;5032980;28;20042;-88
2021/06/11 12:02:42;;;;;;;8.05;7.32;;;29.20;99.90;;;;;;5033557;28;20022;-87
2021/06/11 12:05:08;;;;;;;7.75;7.05;;;29.40;99.90;;;;;;5033639;28;20052;-87
2021/06/11 12:07:34;;;;;;;7.47;6.80;;;30.50;99.90;;;;;;5033394;28;20034;-87
2021/06/11 12:10:00;;;;;;;7.63;7.03;;;32.40;99.90;;;;;;5032995;28;20029;-87
2021/06/11 12:12:26;;;;;;;7.07;6.32;;;34.10;99.90;;;;;;5033156;28;20087;-88
2021/06/11 12:14:55;;;;;;;7.70;6.30;;;35.60;99.90;;;;;;5033299;28;20037;-87
2021/06/11 12:17:21;;;;;;;7.57;6.97;;;36.50;99.90;;;;;;5017511;28;20104;-87
2021/06/11 12:19:47;;;;;;;7.32;6.72;;;37.30;99.90;;;;;;5029663;28;20041;-88
2021/06/11 12:22:16;;;;;;;7.38;6.47;;;37.90;99.90;;;;;;5032678;28;20414;-88
2021/06/11 12:24:43;;;;;;;7.18;6.47;;;38.40;99.90;;;;;;5032666;28;20498;-87
2021/06/11 12:27:09;;;;;;;6.75;6.15;;;37.90;99.90;;;;;;5032701;28;20033;-88
2021/06/11 12:29:35;;;;;;;6.40;5.90;;;38.30;99.90;;;;;;5032633;28;20569;-88
2021/06/11 12:32:01;;;;;;;6.88;6.25;;;38.70;99.90;;;;;;5032890;28;20072;-88
2021/06/11 12:34:27;;;;;;;7.38;6.75;;;38.90;99.90;;;;;;5033488;28;20021;-87
2021/06/11 12:36:53;;;;;;;6.30;5.80;;;39.80;99.90;;;;;;5032319;28;20363;-88
2021/06/11 12:39:18;;;;;;;6.05;5.65;;;38.90;99.90;;;;;;5032979;28;20530;-88
2021/06/11 12:41:44;;;;;;;6.32;5.80;;;38.80;99.90;;;;;;5032496;28;20037;-87
2021/06/11 12:44:19;;;;;;;6.10;5.50;;;38.80;99.90;;;;;;5032397;28;20026;-87